Decoded Metar for PAIL (ILIAMNA in AK, USA) (IATA:ILI) | Meteo·Mobile Aviation Weather
aviador You're here:

PAIL Decoded Metar

ILIAMNA in AK, USA
Report Time2018-08-22 06:44:00
UTC Time2018-08-22 06:57:59
Flight Rules mvfr MVFR
Wind250° at 07 kt
W.Decomp.*RWY 25: 6.7 kt HW 2 kt LCW
RWY 17: 3.2 kt HW 6.2 kt RCW
W.Rank250° ranks 11
Current wind is above 250° avg. (6.9)
Visibility9999 m
Phenomena:N/A
Clouds:Broken 017 Hf
Overcast 085 Hf
Expected CloudBase > 400 ft AGL from Temp-Dew spread
Ceiling1,700 ft
Temp13°C (ISA -2)
Dew Point12°C (94% RH)
AAT11.1°C
QNH1011 hPa
Density Alt217 ft
Elevation161 ft
Report Wrong Elevation
Raw Report
PAIL 220644Z AUTO 25007KT 10SM BKN017 OVC085 13/12 A2986 RMK AO2
T01330122 TSNO=

Extra information for PAIL:More info

Metar Taf Metar & Taf Last 4 Metars F.Rules Stats Wind Profile Meteogram Temp Stats Airport Information Weather charts Add Link Nearby VenuesMetar ALERT Operation Metar Decoded Social comments

AIRNAV info for PAIL